Time;durP1;ratioP1;P1;durP2;ratioP2;P2;SDS_P1;SDS_P2;PMS_P1;PMS_P2;Temp;Humidity;BMP_temperature;BMP_pressure;BME280_temperature;BME280_humidity;BME280_pressure;Samples;Min_cycle;Max_cycle;Signal;HPM_P1;HPM_P2
2022/01/06 00:00:37;;;;;;;24.17;2.30;;;;;;;;;;5071458;28;20044;-61
2022/01/06 00:03:04;;;;;;;27.52;2.13;;;;;;;;;;5072156;28;20044;-61
2022/01/06 00:05:30;;;;;;;16.08;1.42;;;;;;;;;;5078712;28;20536;-61
2022/01/06 00:07:56;;;;;;;14.13;1.02;;;;;;;;;;5072949;28;20055;-61
2022/01/06 00:10:23;;;;;;;16.35;1.30;;;;;;;;;;5076637;28;20558;-62
2022/01/06 00:15:38;;;;;;;15.55;1.17;;;;;;;;;;5075445;28;20530;-63
2022/01/06 00:25:58;;;;;;;14.05;1.17;;;;;;;;;;5109397;28;20122;-61
2022/01/06 00:28:24;;;;;;;16.83;1.23;;;;;;;;;;5110556;28;20031;-61
2022/01/06 00:30:50;;;;;;;20.02;1.38;;;;;;;;;;5074819;28;20044;-61
2022/01/06 00:33:17;;;;;;;21.15;1.08;;;;;;;;;;5074445;28;20051;-61
2022/01/06 00:35:43;;;;;;;11.40;1.17;;;;;;;;;;5057763;28;20054;-61
2022/01/06 00:38:09;;;;;;;20.98;1.23;;;;;;;;;;5092992;28;20055;-62
2022/01/06 00:40:36;;;;;;;21.10;1.33;;;;;;;;;;5095471;28;20048;-62
2022/01/06 00:43:03;;;;;;;23.50;1.80;;;;;;;;;;5094603;28;20047;-62
2022/01/06 00:45:30;;;;;;;15.93;1.60;;;;;;;;;;5094781;28;20053;-62
2022/01/06 00:47:56;;;;;;;23.85;1.65;;;;;;;;;;5094314;28;20496;-62
2022/01/06 00:50:22;;;;;;;13.65;1.75;;;;;;;;;;5092044;28;20032;-62
2022/01/06 00:52:49;;;;;;;18.02;1.58;;;;;;;;;;5066641;28;20031;-62
2022/01/06 00:55:15;;;;;;;24.73;2.47;;;;;;;;;;5112976;28;20118;-61
2022/01/06 00:57:41;;;;;;;18.90;1.95;;;;;;;;;;5080198;28;20524;-62
2022/01/06 01:00:07;;;;;;;21.27;1.42;;;;;;;;;;5091877;28;20032;-62
2022/01/06 01:02:33;;;;;;;20.02;2.03;;;;;;;;;;5073628;28;20043;-62
2022/01/06 01:04:59;;;;;;;13.80;1.15;;;;;;;;;;5083679;28;20126;-62
2022/01/06 01:07:25;;;;;;;19.23;1.48;;;;;;;;;;5099962;28;20054;-62
2022/01/06 01:09:52;;;;;;;22.13;1.30;;;;;;;;;;5063507;28;20075;-62
2022/01/06 01:12:18;;;;;;;21.73;2.10;;;;;;;;;;5082248;28;20519;-62
2022/01/06 01:14:53;;;;;;;30.10;2.17;;;;;;;;;;5085639;28;20047;-62
2022/01/06 01:17:19;;;;;;;16.67;1.08;;;;;;;;;;5064856;28;20084;-62
2022/01/06 01:19:45;;;;;;;25.30;1.92;;;;;;;;;;5056978;28;20040;-62
2022/01/06 01:22:11;;;;;;;21.67;1.30;;;;;;;;;;5099702;28;20036;-62
2022/01/06 01:24:37;;;;;;;15.30;1.33;;;;;;;;;;5084614;28;20039;-62
2022/01/06 01:27:04;;;;;;;16.73;1.25;;;;;;;;;;5098234;28;20119;-62
2022/01/06 01:29:34;;;;;;;17.23;1.67;;;;;;;;;;5065612;28;20682;-62
2022/01/06 01:32:00;;;;;;;14.40;1.70;;;;;;;;;;5082392;28;20044;-62
2022/01/06 01:34:26;;;;;;;14.98;0.90;;;;;;;;;;5098124;28;20040;-62
2022/01/06 01:36:55;;;;;;;15.65;1.15;;;;;;;;;;5065457;28;20345;-63
2022/01/06 01:39:21;;;;;;;15.57;0.80;;;;;;;;;;5080177;28;20074;-62
2022/01/06 01:41:48;;;;;;;18.10;1.25;;;;;;;;;;5065068;28;20129;-62
2022/01/06 01:44:16;;;;;;;12.65;0.80;;;;;;;;;;5079272;28;20040;-62
2022/01/06 01:46:46;;;;;;;14.15;1.55;;;;;;;;;;5064101;28;20390;-61
2022/01/06 01:49:27;;;;;;;11.95;0.90;;;;;;;;;;5080650;28;20044;-60
2022/01/06 01:51:53;;;;;;;17.60;1.13;;;;;;;;;;5080740;28;20382;-60
2022/01/06 01:54:19;;;;;;;23.20;1.67;;;;;;;;;;5083398;28;20031;-60
2022/01/06 01:56:46;;;;;;;24.80;1.30;;;;;;;;;;5100686;28;20107;-60
2022/01/06 01:59:13;;;;;;;16.80;1.10;;;;;;;;;;5100088;28;20722;-60
2022/01/06 02:01:42;;;;;;;12.55;0.90;;;;;;;;;;5100739;28;20566;-61
2022/01/06 02:04:08;;;;;;;16.15;1.23;;;;;;;;;;5078773;28;20054;-62
2022/01/06 02:06:34;;;;;;;15.88;0.85;;;;;;;;;;5082814;28;20046;-62
2022/01/06 02:09:00;;;;;;;17.52;1.33;;;;;;;;;;5065063;28;20048;-61
2022/01/06 02:11:26;;;;;;;21.40;1.60;;;;;;;;;;5082346;28;20110;-62
2022/01/06 02:13:53;;;;;;;21.35;1.73;;;;;;;;;;5080166;28;20056;-62
2022/01/06 02:16:20;;;;;;;22.63;1.02;;;;;;;;;;5069041;28;20036;-62
2022/01/06 02:18:47;;;;;;;16.65;1.00;;;;;;;;;;5091671;28;20055;-61
2022/01/06 02:21:13;;;;;;;14.82;1.13;;;;;;;;;;5089872;28;20116;-61
2022/01/06 02:23:40;;;;;;;21.48;1.52;;;;;;;;;;5075755;28;20051;-61
2022/01/06 02:26:06;;;;;;;11.93;0.82;;;;;;;;;;5075651;28;20272;-61
2022/01/06 02:28:32;;;;;;;10.10;0.40;;;;;;;;;;5060518;28;20046;-62
2022/01/06 02:30:58;;;;;;;11.68;1.17;;;;;;;;;;5096788;28;20044;-62
2022/01/06 02:33:25;;;;;;;13.30;1.30;;;;;;;;;;5098344;28;20051;-61
2022/01/06 02:35:53;;;;;;;17.65;1.00;;;;;;;;;;5077253;28;20388;-61
2022/01/06 02:38:20;;;;;;;8.75;0.70;;;;;;;;;;5081662;28;20047;-61
2022/01/06 02:40:46;;;;;;;13.82;0.82;;;;;;;;;;5103192;28;20504;-61
2022/01/06 02:43:14;;;;;;;15.98;0.90;;;;;;;;;;5074816;28;20043;-61
2022/01/06 02:45:40;;;;;;;13.02;0.90;;;;;;;;;;5083732;28;20043;-62
2022/01/06 02:48:09;;;;;;;12.52;1.40;;;;;;;;;;5075157;28;20485;-62
2022/01/06 02:50:40;;;;;;;13.75;0.90;;;;;;;;;;5080163;28;20044;-62
2022/01/06 02:53:07;;;;;;;9.57;0.88;;;;;;;;;;5055727;28;20048;-61
2022/01/06 02:55:33;;;;;;;13.57;0.80;;;;;;;;;;5056773;28;20123;-61
2022/01/06 02:57:59;;;;;;;10.18;1.00;;;;;;;;;;5055012;28;20036;-61
2022/01/06 03:00:26;;;;;;;14.90;0.80;;;;;;;;;;5101589;28;20043;-61
2022/01/06 03:02:52;;;;;;;11.45;0.77;;;;;;;;;;5110866;28;20560;-61
2022/01/06 03:05:18;;;;;;;9.80;0.80;;;;;;;;;;5071041;28;20566;-60
2022/01/06 03:07:45;;;;;;;17.77;1.25;;;;;;;;;;5071455;28;20043;-61
2022/01/06 03:10:14;;;;;;;11.52;0.70;;;;;;;;;;5071408;28;20042;-61
2022/01/06 03:12:41;;;;;;;10.15;0.68;;;;;;;;;;5089857;28;20042;-61
2022/01/06 03:15:14;;;;;;;18.08;1.52;;;;;;;;;;5098785;28;20040;-61
2022/01/06 03:17:42;;;;;;;13.52;1.55;;;;;;;;;;5091416;28;20050;-61
2022/01/06 03:20:09;;;;;;;16.63;0.95;;;;;;;;;;5101262;28;20048;-61
2022/01/06 03:22:36;;;;;;;12.80;0.90;;;;;;;;;;5071688;28;20043;-61
2022/01/06 03:25:03;;;;;;;18.65;1.33;;;;;;;;;;5079464;28;20031;-60
2022/01/06 03:27:29;;;;;;;20.98;1.30;;;;;;;;;;5091711;28;20047;-61
2022/01/06 03:29:55;;;;;;;19.42;1.15;;;;;;;;;;5070239;28;20043;-60
2022/01/06 03:32:21;;;;;;;17.10;1.45;;;;;;;;;;5110364;28;20120;-60
2022/01/06 03:34:48;;;;;;;19.15;1.40;;;;;;;;;;5109826;28;20032;-62
2022/01/06 03:37:15;;;;;;;15.90;1.48;;;;;;;;;;5068439;28;20047;-62
2022/01/06 03:39:42;;;;;;;12.70;1.27;;;;;;;;;;5082864;28;20461;-61
2022/01/06 03:42:09;;;;;;;14.60;1.30;;;;;;;;;;5098949;28;20767;-61
2022/01/06 03:44:35;;;;;;;16.15;1.30;;;;;;;;;;5086667;28;20046;-61
2022/01/06 03:47:01;;;;;;;18.02;1.40;;;;;;;;;;5087338;28;20054;-61
2022/01/06 03:49:27;;;;;;;13.18;1.05;;;;;;;;;;5090483;28;20044;-60
2022/01/06 03:51:53;;;;;;;13.25;1.25;;;;;;;;;;5091380;28;20544;-60
2022/01/06 03:54:19;;;;;;;11.65;1.20;;;;;;;;;;5089442;28;20044;-60
2022/01/06 03:56:48;;;;;;;17.05;1.33;;;;;;;;;;5071603;28;20490;-60
2022/01/06 03:59:14;;;;;;;15.27;1.70;;;;;;;;;;5071598;28;20131;-62
2022/01/06 04:01:41;;;;;;;19.88;1.02;;;;;;;;;;5064202;28;20089;-61
2022/01/06 04:04:07;;;;;;;15.88;1.77;;;;;;;;;;5089250;28;20427;-61
2022/01/06 04:06:33;;;;;;;21.45;1.83;;;;;;;;;;5070815;28;20078;-61
2022/01/06 04:08:59;;;;;;;13.40;1.00;;;;;;;;;;5054264;28;20040;-61
2022/01/06 04:11:25;;;;;;;15.27;1.30;;;;;;;;;;5070843;28;20521;-61
2022/01/06 04:13:51;;;;;;;14.75;1.77;;;;;;;;;;5070405;28;20048;-61
2022/01/06 04:16:18;;;;;;;17.05;1.40;;;;;;;;;;5087934;28;20039;-61
2022/01/06 04:18:44;;;;;;;11.05;1.00;;;;;;;;;;5091026;28;20767;-61
2022/01/06 04:21:10;;;;;;;13.02;1.30;;;;;;;;;;5075105;28;20057;-61
2022/01/06 04:23:36;;;;;;;13.07;1.73;;;;;;;;;;5054260;28;20044;-61
2022/01/06 04:26:02;;;;;;;15.30;1.05;;;;;;;;;;5089661;28;20135;-61
2022/01/06 04:28:29;;;;;;;16.85;1.02;;;;;;;;;;5089060;28;20055;-61
2022/01/06 04:30:55;;;;;;;21.73;2.00;;;;;;;;;;5083768;28;20043;-61
2022/01/06 04:33:21;;;;;;;22.08;1.98;;;;;;;;;;5090941;28;20044;-61
2022/01/06 04:35:47;;;;;;;24.02;1.60;;;;;;;;;;5096701;28;20449;-61
2022/01/06 04:38:13;;;;;;;19.00;1.52;;;;;;;;;;5088805;28;20119;-61
2022/01/06 04:40:39;;;;;;;22.58;1.63;;;;;;;;;;5095557;28;20065;-61
2022/01/06 04:43:07;;;;;;;18.58;2.05;;;;;;;;;;5103771;28;20142;-61
2022/01/06 04:45:33;;;;;;;15.30;1.25;;;;;;;;;;5100142;28;20040;-61
2022/01/06 04:47:59;;;;;;;12.82;1.60;;;;;;;;;;5085338;28;20537;-61
2022/01/06 04:50:25;;;;;;;16.80;1.25;;;;;;;;;;5112970;28;20400;-61
2022/01/06 04:52:51;;;;;;;16.98;1.08;;;;;;;;;;5111744;28;20493;-61
2022/01/06 04:55:18;;;;;;;12.75;1.73;;;;;;;;;;5082655;28;20035;-61
2022/01/06 04:57:44;;;;;;;20.30;1.30;;;;;;;;;;5112559;28;20051;-61
2022/01/06 05:00:10;;;;;;;20.17;1.48;;;;;;;;;;5086457;28;20082;-61
2022/01/06 05:02:36;;;;;;;22.17;1.75;;;;;;;;;;5093451;28;20096;-62
2022/01/06 05:05:03;;;;;;;24.85;1.60;;;;;;;;;;5080774;28;20044;-61
2022/01/06 05:07:29;;;;;;;27.38;2.38;;;;;;;;;;5094660;28;20044;-61
2022/01/06 05:09:55;;;;;;;28.77;2.08;;;;;;;;;;5091747;28;20047;-60
2022/01/06 05:12:22;;;;;;;22.98;2.85;;;;;;;;;;5107227;28;20135;-61
2022/01/06 05:14:48;;;;;;;28.73;2.53;;;;;;;;;;5108892;28;20071;-60
2022/01/06 05:17:14;;;;;;;26.85;2.60;;;;;;;;;;5056910;28;20048;-59
2022/01/06 05:19:40;;;;;;;25.70;2.80;;;;;;;;;;5075995;28;20182;-59
2022/01/06 05:22:06;;;;;;;24.67;2.08;;;;;;;;;;5077547;28;20051;-59
2022/01/06 05:24:34;;;;;;;22.17;2.05;;;;;;;;;;5092532;28;20508;-60
2022/01/06 05:27:00;;;;;;;30.48;2.95;;;;;;;;;;5074060;28;20050;-59
2022/01/06 05:29:26;;;;;;;28.55;2.85;;;;;;;;;;5092370;28;20122;-60
2022/01/06 05:31:53;;;;;;;22.73;2.38;;;;;;;;;;5077071;28;20050;-60
2022/01/06 05:34:19;;;;;;;29.48;2.38;;;;;;;;;;5079086;28;20047;-60
2022/01/06 05:36:45;;;;;;;21.85;2.65;;;;;;;;;;5092113;28;20497;-60
2022/01/06 05:39:11;;;;;;;24.88;1.73;;;;;;;;;;5092961;28;20047;-61
2022/01/06 05:41:37;;;;;;;23.20;1.60;;;;;;;;;;5089369;28;20060;-61
2022/01/06 05:44:03;;;;;;;20.27;1.50;;;;;;;;;;5064694;28;20141;-60
2022/01/06 05:46:29;;;;;;;24.45;1.50;;;;;;;;;;5083375;28;20488;-62
2022/01/06 05:48:55;;;;;;;22.35;1.80;;;;;;;;;;5086412;28;20131;-62
2022/01/06 05:51:21;;;;;;;23.10;1.85;;;;;;;;;;5090586;28;20043;-62
2022/01/06 05:53:49;;;;;;;16.67;1.63;;;;;;;;;;5084813;28;20060;-62
2022/01/06 05:56:16;;;;;;;20.33;1.42;;;;;;;;;;5106729;28;20397;-62
2022/01/06 05:58:42;;;;;;;22.45;1.63;;;;;;;;;;5111474;28;20048;-62
2022/01/06 06:01:08;;;;;;;21.30;1.48;;;;;;;;;;5078428;28;20047;-61
2022/01/06 06:03:35;;;;;;;22.95;1.90;;;;;;;;;;5072949;28;20043;-61
2022/01/06 06:06:01;;;;;;;22.75;2.05;;;;;;;;;;5092405;28;20044;-60
2022/01/06 06:08:27;;;;;;;30.13;2.60;;;;;;;;;;5039532;28;20043;-62
2022/01/06 06:10:53;;;;;;;18.55;1.67;;;;;;;;;;5072320;28;20158;-62
2022/01/06 06:13:19;;;;;;;23.10;2.30;;;;;;;;;;5072576;28;20123;-62
2022/01/06 06:15:45;;;;;;;22.20;1.80;;;;;;;;;;5082848;28;20039;-62
2022/01/06 06:18:12;;;;;;;29.70;2.13;;;;;;;;;;5092243;28;20043;-62
2022/01/06 06:20:38;;;;;;;22.58;2.88;;;;;;;;;;5100656;28;20054;-62
2022/01/06 06:23:05;;;;;;;18.67;1.92;;;;;;;;;;5074840;28;20074;-62
2022/01/06 06:25:31;;;;;;;21.50;2.30;;;;;;;;;;5056412;28;20109;-63
2022/01/06 06:27:57;;;;;;;21.13;2.25;;;;;;;;;;5095079;28;20040;-63
2022/01/06 06:30:23;;;;;;;25.30;2.08;;;;;;;;;;5062966;28;20028;-62
2022/01/06 06:32:50;;;;;;;23.42;2.15;;;;;;;;;;5042822;28;20562;-62
2022/01/06 06:35:16;;;;;;;25.33;3.05;;;;;;;;;;5078226;28;20032;-63
2022/01/06 06:37:42;;;;;;;22.35;2.45;;;;;;;;;;5082175;28;20039;-63
2022/01/06 06:40:08;;;;;;;24.15;2.50;;;;;;;;;;5077211;28;21032;-63
2022/01/06 06:42:34;;;;;;;22.20;2.30;;;;;;;;;;5075414;28;20123;-62
2022/01/06 06:45:01;;;;;;;19.90;2.10;;;;;;;;;;5080034;28;20035;-62
2022/01/06 06:47:27;;;;;;;25.33;3.42;;;;;;;;;;5083240;28;20048;-63
2022/01/06 06:49:56;;;;;;;26.67;2.85;;;;;;;;;;5095800;28;20141;-62
2022/01/06 06:52:22;;;;;;;22.73;2.70;;;;;;;;;;5093737;28;20032;-63
2022/01/06 06:54:48;;;;;;;29.48;2.97;;;;;;;;;;5077173;28;20035;-62
2022/01/06 06:57:14;;;;;;;22.27;2.50;;;;;;;;;;5063428;28;20149;-62
2022/01/06 06:59:40;;;;;;;27.23;3.10;;;;;;;;;;5090082;28;20142;-62
2022/01/06 07:02:06;;;;;;;22.90;2.30;;;;;;;;;;5071784;28;20126;-62
2022/01/06 07:04:33;;;;;;;29.08;3.03;;;;;;;;;;5071841;28;20051;-60
2022/01/06 07:06:59;;;;;;;28.83;2.88;;;;;;;;;;5040605;28;20104;-61
2022/01/06 07:09:25;;;;;;;28.70;3.22;;;;;;;;;;5072106;28;20401;-61
2022/01/06 07:11:57;;;;;;;38.20;3.45;;;;;;;;;;5074008;28;20113;-61
2022/01/06 07:14:23;;;;;;;33.65;3.72;;;;;;;;;;5081153;28;20055;-60
2022/01/06 07:16:49;;;;;;;30.60;3.60;;;;;;;;;;5073873;28;20402;-60
2022/01/06 07:19:15;;;;;;;34.10;3.67;;;;;;;;;;5071550;28;20122;-60
2022/01/06 07:21:41;;;;;;;36.95;3.67;;;;;;;;;;5063499;28;20047;-60
2022/01/06 07:24:07;;;;;;;28.60;3.47;;;;;;;;;;5072178;28;20040;-60
2022/01/06 07:26:33;;;;;;;36.72;4.00;;;;;;;;;;5067788;28;20102;-62
2022/01/06 07:28:59;;;;;;;25.83;3.33;;;;;;;;;;5077027;28;20040;-62
2022/01/06 07:31:26;;;;;;;29.02;3.33;;;;;;;;;;5073512;28;20047;-60
2022/01/06 07:33:52;;;;;;;33.05;3.55;;;;;;;;;;5072263;28;20041;-62
2022/01/06 07:36:18;;;;;;;26.95;3.88;;;;;;;;;;5075963;28;20036;-62
2022/01/06 07:38:44;;;;;;;35.60;2.90;;;;;;;;;;5075372;28;20045;-60
2022/01/06 07:41:10;;;;;;;27.15;3.05;;;;;;;;;;5075436;28;20036;-59
2022/01/06 07:43:36;;;;;;;26.98;3.97;;;;;;;;;;5070695;28;20413;-61
2022/01/06 07:46:04;;;;;;;25.67;3.25;;;;;;;;;;5077658;28;20509;-61
2022/01/06 07:48:47;;;;;;;33.30;3.75;;;;;;;;;;5072795;28;20059;-61
2022/01/06 07:51:14;;;;;;;26.92;3.65;;;;;;;;;;5082149;28;20492;-60
2022/01/06 07:53:40;;;;;;;29.17;3.67;;;;;;;;;;5069498;28;20047;-60
2022/01/06 07:56:08;;;;;;;42.60;3.70;;;;;;;;;;5072006;28;20472;-61
2022/01/06 07:58:35;;;;;;;28.98;3.28;;;;;;;;;;5069155;28;20050;-60
2022/01/06 08:01:01;;;;;;;27.67;3.45;;;;;;;;;;5071967;28;20123;-60
2022/01/06 08:03:27;;;;;;;38.05;4.20;;;;;;;;;;5082126;28;20043;-60
2022/01/06 08:05:53;;;;;;;34.03;3.78;;;;;;;;;;5069936;28;20646;-60
2022/01/06 08:08:20;;;;;;;33.33;4.05;;;;;;;;;;5073282;28;20432;-60
2022/01/06 08:10:46;;;;;;;33.00;3.78;;;;;;;;;;5081797;28;20055;-61
2022/01/06 08:13:12;;;;;;;34.60;4.15;;;;;;;;;;5096188;28;20044;-60
2022/01/06 08:15:38;;;;;;;28.58;3.90;;;;;;;;;;5099759;28;20050;-61
2022/01/06 08:18:04;;;;;;;29.80;4.13;;;;;;;;;;5097491;28;20075;-61
2022/01/06 08:20:30;;;;;;;37.10;4.20;;;;;;;;;;5099352;28;20042;-60
2022/01/06 08:22:56;;;;;;;35.92;4.13;;;;;;;;;;5081315;28;20040;-62
2022/01/06 08:25:22;;;;;;;38.00;3.80;;;;;;;;;;5085875;28;20473;-62
2022/01/06 08:27:48;;;;;;;35.13;4.18;;;;;;;;;;5079436;28;20047;-62
2022/01/06 08:30:14;;;;;;;35.15;5.05;;;;;;;;;;5083303;28;20043;-63
2022/01/06 08:32:40;;;;;;;34.80;4.20;;;;;;;;;;5080162;28;20474;-62
2022/01/06 08:35:07;;;;;;;36.10;3.83;;;;;;;;;;5076891;28;20473;-61
2022/01/06 08:37:33;;;;;;;41.47;4.60;;;;;;;;;;5061107;28;20040;-62
2022/01/06 08:39:59;;;;;;;36.88;4.05;;;;;;;;;;5098175;28;20044;-61
2022/01/06 08:42:25;;;;;;;30.95;4.55;;;;;;;;;;5075186;28;20136;-62
2022/01/06 08:44:51;;;;;;;33.38;4.45;;;;;;;;;;5072019;28;20039;-61
2022/01/06 08:47:17;;;;;;;33.67;4.28;;;;;;;;;;5085301;28;20074;-62
2022/01/06 08:49:43;;;;;;;39.78;4.30;;;;;;;;;;5067992;28;20032;-62
2022/01/06 08:52:09;;;;;;;30.35;3.30;;;;;;;;;;5094370;28;20028;-61
2022/01/06 08:54:36;;;;;;;28.25;3.40;;;;;;;;;;5091874;28;20119;-61
2022/01/06 08:57:02;;;;;;;39.53;3.80;;;;;;;;;;5081087;28;20040;-60
2022/01/06 08:59:28;;;;;;;29.40;4.10;;;;;;;;;;5076888;28;20110;-62
2022/01/06 09:01:54;;;;;;;33.05;3.75;;;;;;;;;;5097582;28;20029;-61
2022/01/06 09:04:21;;;;;;;32.38;3.55;;;;;;;;;;5083324;28;20066;-62
2022/01/06 09:06:48;;;;;;;28.80;2.97;;;;;;;;;;5053220;28;20068;-62
2022/01/06 09:09:14;;;;;;;26.88;3.28;;;;;;;;;;5097191;28;20040;-62
2022/01/06 09:11:41;;;;;;;26.05;3.95;;;;;;;;;;5075744;28;20075;-61
2022/01/06 09:14:07;;;;;;;33.38;4.40;;;;;;;;;;5078897;28;20351;-62
2022/01/06 09:16:33;;;;;;;28.52;3.38;;;;;;;;;;5066431;28;20039;-61
2022/01/06 09:18:59;;;;;;;36.95;4.88;;;;;;;;;;5098608;28;20041;-63
2022/01/06 09:21:25;;;;;;;30.33;4.00;;;;;;;;;;5078748;28;20044;-62
2022/01/06 09:23:52;;;;;;;26.02;3.55;;;;;;;;;;5101935;28;20475;-63
2022/01/06 09:26:19;;;;;;;30.90;3.95;;;;;;;;;;5104439;28;20040;-63
2022/01/06 09:28:45;;;;;;;27.13;3.55;;;;;;;;;;5085785;28;20077;-63
2022/01/06 09:31:11;;;;;;;29.42;3.38;;;;;;;;;;5100253;28;20086;-62
2022/01/06 09:33:38;;;;;;;34.20;3.95;;;;;;;;;;5078003;28;20063;-63
2022/01/06 09:36:04;;;;;;;29.17;3.45;;;;;;;;;;5086906;28;20089;-61
2022/01/06 09:38:31;;;;;;;30.88;2.58;;;;;;;;;;5085806;28;20187;-61
2022/01/06 09:40:57;;;;;;;24.90;2.90;;;;;;;;;;5107727;28;20075;-61
2022/01/06 09:43:26;;;;;;;32.42;3.55;;;;;;;;;;5074440;28;20039;-61
2022/01/06 09:45:53;;;;;;;23.20;3.05;;;;;;;;;;5057992;28;20054;-61
2022/01/06 09:48:22;;;;;;;26.98;3.25;;;;;;;;;;5082894;28;20123;-61
2022/01/06 09:50:49;;;;;;;27.98;2.78;;;;;;;;;;5102808;28;20530;-61
2022/01/06 09:53:17;;;;;;;27.15;3.10;;;;;;;;;;5098188;28;20036;-61
2022/01/06 09:55:43;;;;;;;29.23;3.95;;;;;;;;;;5097258;28;20064;-61
2022/01/06 09:58:10;;;;;;;24.15;3.53;;;;;;;;;;5072218;28;20489;-62
2022/01/06 10:00:36;;;;;;;27.85;4.18;;;;;;;;;;5065798;28;20107;-62
2022/01/06 10:03:04;;;;;;;23.13;3.70;;;;;;;;;;5093884;28;20052;-63
2022/01/06 10:05:40;;;;;;;18.05;3.35;;;;;;;;;;5058599;28;20175;-63
2022/01/06 10:08:07;;;;;;;22.65;3.72;;;;;;;;;;5071223;28;20040;-63
2022/01/06 10:10:34;;;;;;;22.75;3.30;;;;;;;;;;5070894;28;20401;-63
2022/01/06 10:13:06;;;;;;;26.00;3.42;;;;;;;;;;5052348;28;20045;-63
2022/01/06 10:15:32;;;;;;;20.80;3.25;;;;;;;;;;5069705;28;20035;-61
2022/01/06 10:18:09;;;;;;;19.88;2.95;;;;;;;;;;5073461;28;20043;-63
2022/01/06 10:20:35;;;;;;;24.05;6.78;;;;;;;;;;5069527;28;20122;-63
2022/01/06 10:23:14;;;;;;;18.92;2.97;;;;;;;;;;5098810;28;20089;-63
2022/01/06 10:25:48;;;;;;;20.60;2.78;;;;;;;;;;5060734;28;20097;-62
2022/01/06 10:28:19;;;;;;;11.82;1.90;;;;;;;;;;5079023;28;20039;-63
2022/01/06 10:30:48;;;;;;;16.33;1.75;;;;;;;;;;5063869;28;20032;-62
2022/01/06 10:33:21;;;;;;;21.38;2.63;;;;;;;;;;5094710;28;20027;-62
2022/01/06 10:35:47;;;;;;;26.55;2.80;;;;;;;;;;5087215;28;20062;-62
2022/01/06 10:38:13;;;;;;;16.23;2.67;;;;;;;;;;5067759;28;20173;-61
2022/01/06 10:40:39;;;;;;;19.52;2.88;;;;;;;;;;5091646;28;20070;-61
2022/01/06 10:43:06;;;;;;;24.00;3.20;;;;;;;;;;5072255;28;20044;-62
2022/01/06 10:45:33;;;;;;;20.10;2.75;;;;;;;;;;5073583;28;20404;-62
2022/01/06 10:48:03;;;;;;;16.75;2.83;;;;;;;;;;5096536;28;20031;-62
2022/01/06 10:50:33;;;;;;;18.52;3.03;;;;;;;;;;5073063;28;20032;-62
2022/01/06 10:53:01;;;;;;;23.92;3.38;;;;;;;;;;5072543;28;20478;-61
2022/01/06 10:55:28;;;;;;;24.73;3.72;;;;;;;;;;5096729;28;20492;-62
2022/01/06 10:57:55;;;;;;;26.70;3.13;;;;;;;;;;5083265;28;20332;-62
2022/01/06 11:00:21;;;;;;;21.63;2.88;;;;;;;;;;5067997;28;20051;-63
2022/01/06 11:02:47;;;;;;;22.23;2.70;;;;;;;;;;5073663;28;20528;-63
2022/01/06 11:05:14;;;;;;;17.13;2.95;;;;;;;;;;5080915;28;20513;-62
2022/01/06 11:07:40;;;;;;;18.10;2.90;;;;;;;;;;5076083;28;20402;-62
2022/01/06 11:10:14;;;;;;;20.48;2.85;;;;;;;;;;5077703;28;20374;-62
2022/01/06 11:12:40;;;;;;;18.77;2.55;;;;;;;;;;5073208;28;20435;-63
2022/01/06 11:15:07;;;;;;;23.70;3.83;;;;;;;;;;5081066;28;20044;-61
2022/01/06 11:17:33;;;;;;;21.38;2.47;;;;;;;;;;5065939;28;20110;-62
2022/01/06 11:20:00;;;;;;;20.33;3.00;;;;;;;;;;5082496;28;20048;-62
2022/01/06 11:22:27;;;;;;;21.85;2.80;;;;;;;;;;5064859;28;20354;-61
2022/01/06 11:24:54;;;;;;;19.77;2.90;;;;;;;;;;5090263;28;20044;-62
2022/01/06 11:27:29;;;;;;;18.38;2.83;;;;;;;;;;5056209;28;20127;-62
2022/01/06 11:30:07;;;;;;;24.70;3.28;;;;;;;;;;5084518;28;20490;-62
2022/01/06 11:32:33;;;;;;;22.85;3.15;;;;;;;;;;5086084;28;20045;-63
2022/01/06 11:35:11;;;;;;;18.80;2.47;;;;;;;;;;5071296;28;20039;-62
2022/01/06 11:37:43;;;;;;;20.20;2.85;;;;;;;;;;5071939;28;20203;-62
2022/01/06 11:40:10;;;;;;;23.45;3.15;;;;;;;;;;5073684;28;20035;-61
2022/01/06 11:42:36;;;;;;;22.05;3.25;;;;;;;;;;5073182;28;20406;-62
2022/01/06 11:45:05;;;;;;;20.23;3.13;;;;;;;;;;5094193;28;20051;-62
2022/01/06 11:47:33;;;;;;;17.38;2.85;;;;;;;;;;5057139;28;20126;-62
2022/01/06 11:50:24;;;;;;;18.20;2.20;;;;;;;;;;5078866;28;20039;-62
2022/01/06 11:52:50;;;;;;;22.63;2.70;;;;;;;;;;5093497;28;20096;-62
2022/01/06 11:55:17;;;;;;;21.10;2.90;;;;;;;;;;5092678;28;20051;-63
2022/01/06 11:57:44;;;;;;;19.52;3.22;;;;;;;;;;5103333;28;20040;-62
2022/01/06 12:00:21;;;;;;;16.65;2.80;;;;;;;;;;5094977;28;20043;-62
2022/01/06 12:02:57;;;;;;;18.13;2.25;;;;;;;;;;5105210;28;20074;-61
2022/01/06 12:05:23;;;;;;;22.13;2.75;;;;;;;;;;5105696;28;20541;-62
2022/01/06 12:07:52;;;;;;;22.48;3.17;;;;;;;;;;5074738;28;20439;-62
2022/01/06 12:10:20;;;;;;;21.95;3.47;;;;;;;;;;5073435;28;20123;-63
2022/01/06 12:12:48;;;;;;;21.75;3.10;;;;;;;;;;5074395;28;20048;-63
2022/01/06 12:15:15;;;;;;;21.98;3.33;;;;;;;;;;5091089;28;20362;-62
2022/01/06 12:17:46;;;;;;;19.10;2.72;;;;;;;;;;5076059;28;20393;-62
2022/01/06 12:20:18;;;;;;;20.00;3.47;;;;;;;;;;5099577;28;20512;-62
2022/01/06 12:22:44;;;;;;;22.30;3.20;;;;;;;;;;5082384;28;20097;-62
2022/01/06 12:25:10;;;;;;;24.20;3.75;;;;;;;;;;5078027;28;20051;-62
2022/01/06 12:27:48;;;;;;;27.65;3.70;;;;;;;;;;5081773;28;20476;-63
2022/01/06 12:30:14;;;;;;;15.82;2.38;;;;;;;;;;5079760;28;20031;-64
2022/01/06 12:32:40;;;;;;;17.35;2.78;;;;;;;;;;5082078;28;20032;-63
2022/01/06 12:35:07;;;;;;;20.70;3.20;;;;;;;;;;5105266;28;20036;-62
2022/01/06 12:37:33;;;;;;;18.15;2.90;;;;;;;;;;5076918;28;20081;-62
2022/01/06 12:40:00;;;;;;;20.73;2.70;;;;;;;;;;5090104;28;20040;-62
2022/01/06 12:42:26;;;;;;;19.88;2.22;;;;;;;;;;5079215;28;20116;-61
2022/01/06 12:44:53;;;;;;;23.02;3.05;;;;;;;;;;5097825;28;20144;-60
2022/01/06 12:47:19;;;;;;;14.90;2.22;;;;;;;;;;5075467;28;20047;-62
2022/01/06 12:49:46;;;;;;;17.95;3.08;;;;;;;;;;5059106;28;20036;-61
2022/01/06 12:52:12;;;;;;;19.25;2.40;;;;;;;;;;5083497;28;20116;-62
2022/01/06 12:54:40;;;;;;;20.33;2.53;;;;;;;;;;5083327;28;20044;-62
2022/01/06 12:57:09;;;;;;;20.08;3.30;;;;;;;;;;5093913;28;20430;-62
2022/01/06 12:59:37;;;;;;;21.92;3.15;;;;;;;;;;5079063;28;20120;-64
2022/01/06 13:02:04;;;;;;;19.95;2.85;;;;;;;;;;5101758;28;20318;-63
2022/01/06 13:04:32;;;;;;;22.90;3.13;;;;;;;;;;5055061;28;20036;-64
2022/01/06 13:06:59;;;;;;;20.23;2.75;;;;;;;;;;5062077;28;20039;-62
2022/01/06 13:09:30;;;;;;;23.10;3.25;;;;;;;;;;5077369;28;20032;-63
2022/01/06 13:11:57;;;;;;;23.80;3.45;;;;;;;;;;5081890;28;20522;-63
2022/01/06 13:14:34;;;;;;;19.20;3.20;;;;;;;;;;5079149;28;20082;-63
2022/01/06 13:17:06;;;;;;;20.42;3.20;;;;;;;;;;5079867;28;20067;-63
2022/01/06 13:19:33;;;;;;;19.05;3.17;;;;;;;;;;5057373;28;20523;-63
2022/01/06 13:22:03;;;;;;;22.58;3.22;;;;;;;;;;5083921;28;20043;-63
2022/01/06 13:24:31;;;;;;;20.70;3.85;;;;;;;;;;5100039;28;20123;-63
2022/01/06 13:26:58;;;;;;;17.90;3.10;;;;;;;;;;5080407;28;20040;-63
2022/01/06 13:29:25;;;;;;;21.83;3.40;;;;;;;;;;5065548;28;20032;-62
2022/01/06 13:32:17;;;;;;;17.67;3.20;;;;;;;;;;5059418;28;20043;-64
2022/01/06 13:34:45;;;;;;;18.05;3.65;;;;;;;;;;5078375;28;20075;-63
2022/01/06 13:37:13;;;;;;;18.60;2.75;;;;;;;;;;5081955;28;20089;-63
2022/01/06 13:39:40;;;;;;;22.77;3.58;;;;;;;;;;5076369;28;20597;-64
2022/01/06 13:42:07;;;;;;;24.55;3.83;;;;;;;;;;5098612;28;20113;-63
2022/01/06 13:44:34;;;;;;;22.95;3.55;;;;;;;;;;5054987;28;20039;-62
2022/01/06 13:47:18;;;;;;;26.58;4.55;;;;;;;;;;5097752;28;20638;-62
2022/01/06 13:52:29;;;;;;;21.05;3.22;;;;;;;;;;5097408;28;20036;-63
2022/01/06 13:54:56;;;;;;;24.08;3.50;;;;;;;;;;5107436;28;20500;-62
2022/01/06 13:57:22;;;;;;;21.08;3.28;;;;;;;;;;5059307;28;20040;-64
2022/01/06 13:59:49;;;;;;;28.50;3.85;;;;;;;;;;5084616;28;20039;-63
2022/01/06 14:02:17;;;;;;;20.70;3.47;;;;;;;;;;5057387;28;20047;-63
2022/01/06 14:04:44;;;;;;;18.08;2.75;;;;;;;;;;5078625;28;20115;-63
2022/01/06 14:07:12;;;;;;;24.08;2.95;;;;;;;;;;5076433;28;20043;-63
2022/01/06 14:09:38;;;;;;;15.60;1.80;;;;;;;;;;5065386;28;20113;-61
2022/01/06 14:12:04;;;;;;;18.05;2.58;;;;;;;;;;5093950;28;20051;-62
2022/01/06 14:14:30;;;;;;;20.95;2.50;;;;;;;;;;5076548;28;20040;-63
2022/01/06 14:16:56;;;;;;;21.30;3.13;;;;;;;;;;5101421;28;20416;-62
2022/01/06 14:19:23;;;;;;;20.27;2.90;;;;;;;;;;5086804;28;20039;-61
2022/01/06 14:21:49;;;;;;;21.13;2.75;;;;;;;;;;5070695;28;20044;-61
2022/01/06 14:24:15;;;;;;;20.45;2.38;;;;;;;;;;5039737;28;20059;-62
2022/01/06 14:26:41;;;;;;;20.55;2.50;;;;;;;;;;5076074;28;20512;-61
2022/01/06 14:29:07;;;;;;;18.60;3.05;;;;;;;;;;5083814;28;20081;-63
2022/01/06 14:31:33;;;;;;;18.75;2.88;;;;;;;;;;5075345;28;20044;-63
2022/01/06 14:34:00;;;;;;;22.13;2.70;;;;;;;;;;5073712;28;20441;-63
2022/01/06 14:36:26;;;;;;;18.00;1.90;;;;;;;;;;5080640;28;20118;-63
2022/01/06 14:38:52;;;;;;;16.80;1.90;;;;;;;;;;5102871;28;20039;-64
2022/01/06 14:41:19;;;;;;;20.58;2.28;;;;;;;;;;5093620;28;20555;-62
2022/01/06 14:43:45;;;;;;;19.52;2.40;;;;;;;;;;5061717;28;20046;-63